横風じゃないので、ウィンドシア酷くなければ降りれますな

@ashphy 競合他社が無い路線に入ってるので割引なしの強気の価格設定です

今日も強風だな八丈島
02/17 08:00
RJTH 162300Z 26020G32KT 9999 FEW011 SCT015 BKN020 15/13 Q1006 RMK
A2972=

@ashphy 1894ですか、岩国からの戻りが間に合いそうなのでJA03VAになるかもしれません
どっちにしても詰め込み機材ですが

@ashphy 1894なら01VAか02VAのどっちかかな

八丈島便が着くスポット、今武漢帰りのアレが停まってる

マストドンでオフパコ出来た人はマストドンでオフパコ出来たって言わないんじゃないかな?

@ichigaya2016 カメラは現地調達
カメラ部野戦班の常識

8時起きはブルジョワ

日常会話がActivityPubの人たち

休みに呼び出して電気工事させるし

俺の妹がこんなに可愛くない

Show more
hikoukidon

個人運用インスタンスです。 Private instance.